sensor_id;sensor_type;location;lat;lon;timestamp;temperature;humidity
1524;DHT22;755;53.658;10.118;2023-12-29T00:00:13;10.10;1.00
1524;DHT22;755;53.658;10.118;2023-12-29T00:10:16;9.90;99.90
1524;DHT22;755;53.658;10.118;2023-12-29T00:20:22;9.50;99.90
1524;DHT22;755;53.658;10.118;2023-12-29T00:30:24;9.00;99.90
1524;DHT22;755;53.658;10.118;2023-12-29T00:40:28;8.90;99.90
1524;DHT22;755;53.658;10.118;2023-12-29T00:50:30;8.80;99.90
1524;DHT22;755;53.658;10.118;2023-12-29T01:00:43;8.80;99.90
1524;DHT22;755;53.658;10.118;2023-12-29T01:10:45;8.80;99.90
1524;DHT22;755;53.658;10.118;2023-12-29T01:20:48;8.80;99.90
1524;DHT22;755;53.658;10.118;2023-12-29T01:30:50;8.80;99.90
1524;DHT22;755;53.658;10.118;2023-12-29T01:40:53;8.80;99.90
1524;DHT22;755;53.658;10.118;2023-12-29T01:50:56;8.70;99.90
1524;DHT22;755;53.658;10.118;2023-12-29T02:01:00;8.70;99.90
1524;DHT22;755;53.658;10.118;2023-12-29T02:11:02;8.70;99.90
1524;DHT22;755;53.658;10.118;2023-12-29T02:21:06;8.70;99.90
1524;DHT22;755;53.658;10.118;2023-12-29T02:31:13;8.80;99.90
1524;DHT22;755;53.658;10.118;2023-12-29T02:41:16;8.90;99.90
1524;DHT22;755;53.658;10.118;2023-12-29T02:51:19;9.00;99.90
1524;DHT22;755;53.658;10.118;2023-12-29T03:01:22;9.00;99.90
1524;DHT22;755;53.658;10.118;2023-12-29T03:11:25;9.00;99.90
1524;DHT22;755;53.658;10.118;2023-12-29T03:21:27;9.00;99.90
1524;DHT22;755;53.658;10.118;2023-12-29T03:31:30;9.10;99.90
1524;DHT22;755;53.658;10.118;2023-12-29T03:41:32;9.10;99.90
1524;DHT22;755;53.658;10.118;2023-12-29T03:51:36;9.10;99.90
1524;DHT22;755;53.658;10.118;2023-12-29T04:01:38;9.00;99.90
1524;DHT22;755;53.658;10.118;2023-12-29T04:11:41;9.00;99.90
1524;DHT22;755;53.658;10.118;2023-12-29T04:21:44;9.00;99.90
1524;DHT22;755;53.658;10.118;2023-12-29T04:31:48;9.00;99.90
1524;DHT22;755;53.658;10.118;2023-12-29T04:41:50;8.20;99.90
1524;DHT22;755;53.658;10.118;2023-12-29T04:51:53;7.60;99.90
1524;DHT22;755;53.658;10.118;2023-12-29T05:01:55;7.40;99.90
1524;DHT22;755;53.658;10.118;2023-12-29T05:11:59;7.10;99.90
1524;DHT22;755;53.658;10.118;2023-12-29T05:22:01;7.00;99.90
1524;DHT22;755;53.658;10.118;2023-12-29T05:32:05;6.90;99.90
1524;DHT22;755;53.658;10.118;2023-12-29T05:42:08;7.10;99.90
1524;DHT22;755;53.658;10.118;2023-12-29T05:52:11;7.00;99.90
1524;DHT22;755;53.658;10.118;2023-12-29T06:02:13;7.20;99.90
1524;DHT22;755;53.658;10.118;2023-12-29T06:12:17;7.30;99.90
1524;DHT22;755;53.658;10.118;2023-12-29T06:22:19;7.40;99.90
1524;DHT22;755;53.658;10.118;2023-12-29T06:32:22;7.50;99.90
1524;DHT22;755;53.658;10.118;2023-12-29T06:42:25;7.60;99.90
1524;DHT22;755;53.658;10.118;2023-12-29T06:52:29;7.60;99.90
1524;DHT22;755;53.658;10.118;2023-12-29T07:02:37;7.60;99.90
1524;DHT22;755;53.658;10.118;2023-12-29T07:12:40;7.80;99.90
1524;DHT22;755;53.658;10.118;2023-12-29T07:22:42;7.80;99.90
1524;DHT22;755;53.658;10.118;2023-12-29T07:32:46;7.90;99.90
1524;DHT22;755;53.658;10.118;2023-12-29T07:42:48;8.00;99.90
1524;DHT22;755;53.658;10.118;2023-12-29T07:52:52;8.20;99.90
1524;DHT22;755;53.658;10.118;2023-12-29T08:02:54;8.30;99.90
1524;DHT22;755;53.658;10.118;2023-12-29T08:12:58;8.40;99.90
1524;DHT22;755;53.658;10.118;2023-12-29T08:23:00;8.40;99.90
1524;DHT22;755;53.658;10.118;2023-12-29T08:33:04;8.50;99.90
1524;DHT22;755;53.658;10.118;2023-12-29T08:43:07;8.60;99.90
1524;DHT22;755;53.658;10.118;2023-12-29T08:53:10;8.80;99.90
1524;DHT22;755;53.658;10.118;2023-12-29T09:03:13;8.90;99.90
1524;DHT22;755;53.658;10.118;2023-12-29T09:13:16;8.90;99.90
1524;DHT22;755;53.658;10.118;2023-12-29T09:23:19;8.60;99.90
1524;DHT22;755;53.658;10.118;2023-12-29T09:33:23;8.30;99.90
1524;DHT22;755;53.658;10.118;2023-12-29T09:43:26;7.70;99.90
1524;DHT22;755;53.658;10.118;2023-12-29T09:53:30;7.50;99.90
1524;DHT22;755;53.658;10.118;2023-12-29T10:03:33;7.40;99.90
1524;DHT22;755;53.658;10.118;2023-12-29T10:13:37;7.50;99.90
1524;DHT22;755;53.658;10.118;2023-12-29T10:23:43;7.80;99.90
1524;DHT22;755;53.658;10.118;2023-12-29T10:33:51;8.00;99.90
1524;DHT22;755;53.658;10.118;2023-12-29T10:43:53;8.00;99.90
1524;DHT22;755;53.658;10.118;2023-12-29T10:54:00;8.20;99.90
1524;DHT22;755;53.658;10.118;2023-12-29T11:04:04;8.30;99.90
1524;DHT22;755;53.658;10.118;2023-12-29T11:14:10;8.30;99.90
1524;DHT22;755;53.658;10.118;2023-12-29T11:24:13;8.30;99.90
1524;DHT22;755;53.658;10.118;2023-12-29T11:34:35;8.30;99.90
1524;DHT22;755;53.658;10.118;2023-12-29T11:44:49;8.50;99.90
1524;DHT22;755;53.658;10.118;2023-12-29T11:54:52;8.60;99.90
1524;DHT22;755;53.658;10.118;2023-12-29T12:04:57;8.70;99.90
1524;DHT22;755;53.658;10.118;2023-12-29T12:15:31;8.70;99.90
1524;DHT22;755;53.658;10.118;2023-12-29T12:25:44;8.80;99.90
1524;DHT22;755;53.658;10.118;2023-12-29T12:36:00;8.90;99.90
1524;DHT22;755;53.658;10.118;2023-12-29T12:46:12;9.00;99.90
1524;DHT22;755;53.658;10.118;2023-12-29T12:56:22;9.20;99.90
1524;DHT22;755;53.658;10.118;2023-12-29T13:06:30;9.20;99.90
1524;DHT22;755;53.658;10.118;2023-12-29T13:16:38;9.20;99.90
1524;DHT22;755;53.658;10.118;2023-12-29T13:26:43;9.20;99.90
1524;DHT22;755;53.658;10.118;2023-12-29T13:37:04;9.10;99.90
1524;DHT22;755;53.658;10.118;2023-12-29T13:47:11;9.10;99.90
1524;DHT22;755;53.658;10.118;2023-12-29T13:57:29;8.90;99.90
1524;DHT22;755;53.658;10.118;2023-12-29T14:07:33;8.90;99.90
1524;DHT22;755;53.658;10.118;2023-12-29T14:17:38;8.70;99.90
1524;DHT22;755;53.658;10.118;2023-12-29T14:27:54;8.60;99.90
1524;DHT22;755;53.658;10.118;2023-12-29T14:37:58;8.50;99.90
1524;DHT22;755;53.658;10.118;2023-12-29T14:48:00;8.60;99.90
1524;DHT22;755;53.658;10.118;2023-12-29T14:58:04;8.40;99.90
1524;DHT22;755;53.658;10.118;2023-12-29T15:08:06;8.40;99.90
1524;DHT22;755;53.658;10.118;2023-12-29T15:18:09;8.40;99.90
1524;DHT22;755;53.658;10.118;2023-12-29T15:28:11;8.50;99.90
1524;DHT22;755;53.658;10.118;2023-12-29T15:38:15;8.40;1.00
1524;DHT22;755;53.658;10.118;2023-12-29T15:48:17;8.50;1.00
1524;DHT22;755;53.658;10.118;2023-12-29T15:58:20;8.50;1.00
1524;DHT22;755;53.658;10.118;2023-12-29T16:08:22;8.60;1.00
1524;DHT22;755;53.658;10.118;2023-12-29T16:18:26;8.50;99.90
1524;DHT22;755;53.658;10.118;2023-12-29T16:28:28;8.40;99.90
1524;DHT22;755;53.658;10.118;2023-12-29T16:38:31;8.40;99.90
1524;DHT22;755;53.658;10.118;2023-12-29T16:48:33;8.30;99.90
1524;DHT22;755;53.658;10.118;2023-12-29T16:58:37;8.20;99.90
1524;DHT22;755;53.658;10.118;2023-12-29T17:08:42;8.20;1.00
1524;DHT22;755;53.658;10.118;2023-12-29T17:18:46;8.10;1.00
1524;DHT22;755;53.658;10.118;2023-12-29T17:28:48;8.10;1.00
1524;DHT22;755;53.658;10.118;2023-12-29T17:38:53;8.00;99.90
1524;DHT22;755;53.658;10.118;2023-12-29T17:48:57;8.00;1.00
1524;DHT22;755;53.658;10.118;2023-12-29T17:59:04;8.10;1.00
1524;DHT22;755;53.658;10.118;2023-12-29T18:09:09;8.10;99.90
1524;DHT22;755;53.658;10.118;2023-12-29T18:19:15;8.00;99.90
1524;DHT22;755;53.658;10.118;2023-12-29T18:29:23;8.00;6.90
1524;DHT22;755;53.658;10.118;2023-12-29T18:39:27;8.00;92.50
1524;DHT22;755;53.658;10.118;2023-12-29T18:49:29;8.00;1.00
1524;DHT22;755;53.658;10.118;2023-12-29T18:59:32;7.90;1.00
1524;DHT22;755;53.658;10.118;2023-12-29T19:09:35;8.00;1.00
1524;DHT22;755;53.658;10.118;2023-12-29T19:19:40;7.90;99.90
1524;DHT22;755;53.658;10.118;2023-12-29T19:29:42;7.90;99.90
1524;DHT22;755;53.658;10.118;2023-12-29T19:39:46;7.90;99.90
1524;DHT22;755;53.658;10.118;2023-12-29T19:49:48;7.90;99.90
1524;DHT22;755;53.658;10.118;2023-12-29T19:59:51;7.90;1.00
1524;DHT22;755;53.658;10.118;2023-12-29T20:09:56;7.90;1.00
1524;DHT22;755;53.658;10.118;2023-12-29T20:20:00;7.90;1.00
1524;DHT22;755;53.658;10.118;2023-12-29T20:30:03;8.00;99.90
1524;DHT22;755;53.658;10.118;2023-12-29T20:40:08;8.00;1.00
1524;DHT22;755;53.658;10.118;2023-12-29T20:50:11;8.00;1.00
1524;DHT22;755;53.658;10.118;2023-12-29T21:00:15;8.00;1.00
1524;DHT22;755;53.658;10.118;2023-12-29T21:10:18;8.00;99.90
1524;DHT22;755;53.658;10.118;2023-12-29T21:20:27;7.90;1.00
1524;DHT22;755;53.658;10.118;2023-12-29T21:30:30;7.80;1.00
1524;DHT22;755;53.658;10.118;2023-12-29T21:40:35;7.70;26.00
1524;DHT22;755;53.658;10.118;2023-12-29T21:50:37;7.40;6.90
1524;DHT22;755;53.658;10.118;2023-12-29T22:00:41;7.30;1.00
1524;DHT22;755;53.658;10.118;2023-12-29T22:10:44;7.20;1.00
1524;DHT22;755;53.658;10.118;2023-12-29T22:20:48;7.00;1.00
1524;DHT22;755;53.658;10.118;2023-12-29T22:30:51;7.00;1.00
1524;DHT22;755;53.658;10.118;2023-12-29T22:40:54;6.90;11.50
1524;DHT22;755;53.658;10.118;2023-12-29T22:50:57;7.00;1.00
1524;DHT22;755;53.658;10.118;2023-12-29T23:01:01;7.00;1.00
1524;DHT22;755;53.658;10.118;2023-12-29T23:11:03;7.00;1.00
1524;DHT22;755;53.658;10.118;2023-12-29T23:21:07;7.00;1.00
1524;DHT22;755;53.658;10.118;2023-12-29T23:31:11;7.00;1.00
1524;DHT22;755;53.658;10.118;2023-12-29T23:41:14;7.00;1.00
1524;DHT22;755;53.658;10.118;2023-12-29T23:51:18;7.00;51.20
